AAL317 KJFK-MDPP
Flight info
| Callsign | AAL317 |
|---|---|
| Flight time | N/A |
| Altitude | 33000 |
| Route | SHIPP Y488 ICCEY/N0461F350 Y488 OHRYN/N0461F340 Y488 GMENN/N0461F360 Y488 WEBBB/M081F360 Y488 HOBOH/M081F350 Y488 CHUBY/M081F360 Y488 SAUCR/M081F350 L453 BOREX/M081F370 L453 LAMER/N0472F370 L453 RODRK/N0472F360 DCT SEKAR SEKAR3S |
| Aircraft | B738/M-SDE2E3FGHIRWXY/LB1 |
Departure
| Time | N/A |
|---|---|
| Airport | John F. Kennedy International Airport (KJFK) |
Arrival
| Time | 2026-05-05 03:10 |
|---|---|
| Airport | Gregorio Luperon International Airport (MDPP) |
| Time | Latitude | Longitude | Altitude | Speed | Heading |
|---|---|---|---|---|---|
| 2026-05-05 00:11 | 36.93109 | -72.41099 | 33017 ft | 424 kts | 211° |
| 2026-05-05 00:12 | 36.87752 | -72.44170 | 33018 ft | 423 kts | 211° |
| 2026-05-05 00:12 | 36.82452 | -72.47203 | 33020 ft | 421 kts | 211° |
| 2026-05-05 00:13 | 36.77133 | -72.50244 | 33017 ft | 420 kts | 211° |
| 2026-05-05 00:13 | 36.71639 | -72.52792 | 33014 ft | 432 kts | 197° |
| 2026-05-05 00:14 | 36.65528 | -72.52803 | 33012 ft | 453 kts | 176° |
| 2026-05-05 00:14 | 36.59382 | -72.50822 | 33018 ft | 457 kts | 173° |
| 2026-05-05 00:15 | 36.53251 | -72.48708 | 33017 ft | 456 kts | 173° |
| 2026-05-05 00:15 | 36.48167 | -72.47009 | 33021 ft | 455 kts | 174° |
| 2026-05-05 00:16 | 36.42054 | -72.45008 | 33026 ft | 454 kts | 174° |
| 2026-05-05 00:16 | 36.35945 | -72.43026 | 33027 ft | 453 kts | 174° |
| 2026-05-05 00:17 | 36.29844 | -72.41049 | 33031 ft | 452 kts | 174° |
| 2026-05-05 00:17 | 36.23798 | -72.39091 | 33025 ft | 451 kts | 174° |
| 2026-05-05 00:18 | 36.17727 | -72.37128 | 33027 ft | 451 kts | 174° |
| 2026-05-05 00:18 | 36.11661 | -72.35170 | 33024 ft | 450 kts | 174° |
| 2026-05-05 00:19 | 36.05599 | -72.33231 | 33029 ft | 448 kts | 176° |
| 2026-05-05 00:19 | 36.02558 | -72.32649 | 33025 ft | 437 kts | 185° |
| 2026-05-05 00:19 | 35.99556 | -72.32638 | 33063 ft | 430 kts | 189° |
| 2026-05-05 00:20 | 35.93577 | -72.32792 | 33062 ft | 430 kts | 189° |
| 2026-05-05 00:20 | 35.87598 | -72.32922 | 33063 ft | 430 kts | 189° |
| 2026-05-05 00:21 | 35.81611 | -72.33019 | 33065 ft | 430 kts | 189° |
| 2026-05-05 00:21 | 35.75625 | -72.33104 | 33066 ft | 430 kts | 189° |
| 2026-05-05 00:22 | 35.69665 | -72.33186 | 33066 ft | 431 kts | 189° |
| 2026-05-05 00:22 | 35.63657 | -72.33269 | 33065 ft | 431 kts | 189° |
| 2026-05-05 00:23 | 35.57657 | -72.33353 | 33066 ft | 431 kts | 189° |
| 2026-05-05 00:23 | 35.51654 | -72.33437 | 33062 ft | 431 kts | 189° |
| 2026-05-05 00:24 | 35.45672 | -72.33522 | 33066 ft | 432 kts | 189° |
| 2026-05-05 00:24 | 35.39650 | -72.33607 | 33064 ft | 433 kts | 189° |
| 2026-05-05 00:25 | 35.33625 | -72.33691 | 33066 ft | 433 kts | 189° |
| 2026-05-05 00:25 | 35.27591 | -72.33774 | 33065 ft | 434 kts | 189° |
| 2026-05-05 00:26 | 35.21549 | -72.33859 | 33075 ft | 434 kts | 189° |
| 2026-05-05 00:26 | 35.15502 | -72.33941 | 33086 ft | 434 kts | 189° |
| 2026-05-05 00:27 | 35.09488 | -72.34025 | 33082 ft | 435 kts | 189° |
| 2026-05-05 00:27 | 35.03434 | -72.34108 | 33083 ft | 434 kts | 189° |
| 2026-05-05 00:28 | 34.97390 | -72.34196 | 33083 ft | 434 kts | 189° |
| 2026-05-05 00:28 | 34.91457 | -72.34960 | 33091 ft | 426 kts | 196° |
| 2026-05-05 00:29 | 34.85627 | -72.36009 | 33082 ft | 426 kts | 195° |
| 2026-05-05 00:29 | 34.79745 | -72.37002 | 33082 ft | 426 kts | 195° |
| 2026-05-05 00:30 | 34.73871 | -72.37951 | 33084 ft | 427 kts | 194° |
| 2026-05-05 00:30 | 34.67826 | -72.37814 | 33090 ft | 439 kts | 183° |
| 2026-05-05 00:31 | 34.61732 | -72.37091 | 33078 ft | 440 kts | 182° |
| 2026-05-05 00:31 | 34.55641 | -72.36389 | 33083 ft | 439 kts | 183° |
| 2026-05-05 00:32 | 34.49554 | -72.35720 | 33084 ft | 439 kts | 183° |
| 2026-05-05 00:32 | 34.43469 | -72.35063 | 33085 ft | 439 kts | 183° |
| 2026-05-05 00:33 | 34.37375 | -72.34407 | 33082 ft | 439 kts | 183° |
| 2026-05-05 00:33 | 34.31328 | -72.33755 | 33083 ft | 439 kts | 183° |
| 2026-05-05 00:34 | 34.25239 | -72.33099 | 33084 ft | 439 kts | 183° |
| 2026-05-05 00:34 | 34.19150 | -72.32447 | 33082 ft | 439 kts | 183° |
| 2026-05-05 00:35 | 34.13058 | -72.31792 | 33082 ft | 439 kts | 183° |
| 2026-05-05 00:35 | 34.06975 | -72.31139 | 33083 ft | 439 kts | 183° |
| 2026-05-05 00:36 | 34.00886 | -72.30488 | 33084 ft | 439 kts | 183° |
| 2026-05-05 00:36 | 33.94838 | -72.29448 | 33090 ft | 446 kts | 176° |
| 2026-05-05 00:37 | 33.88773 | -72.27728 | 33080 ft | 448 kts | 175° |
| 2026-05-05 00:37 | 33.82708 | -72.25973 | 33082 ft | 448 kts | 175° |
| 2026-05-05 00:38 | 33.76641 | -72.24276 | 33084 ft | 447 kts | 175° |
| 2026-05-05 00:38 | 33.70566 | -72.22609 | 33083 ft | 448 kts | 175° |
| 2026-05-05 00:39 | 33.64486 | -72.20947 | 33083 ft | 448 kts | 175° |
| 2026-05-05 00:39 | 33.58429 | -72.19292 | 33082 ft | 448 kts | 175° |
| 2026-05-05 00:40 | 33.52346 | -72.17633 | 33084 ft | 448 kts | 175° |
| 2026-05-05 00:40 | 33.46260 | -72.15975 | 33083 ft | 448 kts | 175° |
| 2026-05-05 00:41 | 33.40166 | -72.14316 | 33084 ft | 449 kts | 175° |
| 2026-05-05 00:41 | 33.34086 | -72.12665 | 33082 ft | 448 kts | 176° |
| 2026-05-05 00:42 | 33.27991 | -72.11012 | 33085 ft | 449 kts | 175° |
| 2026-05-05 00:42 | 33.21900 | -72.09362 | 33083 ft | 449 kts | 175° |
| 2026-05-05 00:43 | 33.15839 | -72.07721 | 33081 ft | 449 kts | 175° |
| 2026-05-05 00:43 | 33.09744 | -72.06074 | 33084 ft | 449 kts | 175° |
| 2026-05-05 00:44 | 33.03636 | -72.04427 | 33086 ft | 449 kts | 175° |
| 2026-05-05 00:44 | 32.97527 | -72.02782 | 33081 ft | 450 kts | 175° |
| 2026-05-05 00:45 | 32.91423 | -72.01140 | 33083 ft | 450 kts | 175° |
| 2026-05-05 00:45 | 32.85357 | -71.99510 | 33085 ft | 450 kts | 176° |
| 2026-05-05 00:46 | 32.79262 | -71.97873 | 33084 ft | 448 kts | 175° |
| 2026-05-05 00:46 | 32.73199 | -71.96248 | 33078 ft | 445 kts | 176° |
| 2026-05-05 00:47 | 32.67161 | -71.94634 | 33081 ft | 444 kts | 176° |
| 2026-05-05 00:47 | 32.61132 | -71.93024 | 33081 ft | 443 kts | 176° |
| 2026-05-05 00:48 | 32.55115 | -71.91420 | 33086 ft | 443 kts | 176° |
| 2026-05-05 00:48 | 32.49041 | -71.89807 | 33473 ft | 448 kts | 176° |
| 2026-05-05 00:48 | 32.46046 | -71.89006 | 33983 ft | 443 kts | 176° |
| 2026-05-05 00:49 | 32.43055 | -71.88205 | 34526 ft | 438 kts | 176° |
| 2026-05-05 00:49 | 32.40085 | -71.87412 | 34917 ft | 437 kts | 176° |
| 2026-05-05 00:49 | 32.37113 | -71.86624 | 35079 ft | 440 kts | 176° |
| 2026-05-05 00:50 | 32.31103 | -71.85036 | 35088 ft | 443 kts | 176° |
| 2026-05-05 00:50 | 32.25131 | -71.83451 | 35082 ft | 437 kts | 176° |
| 2026-05-05 00:51 | 32.19201 | -71.81879 | 35085 ft | 436 kts | 176° |
| 2026-05-05 00:51 | 32.13278 | -71.80316 | 35096 ft | 436 kts | 176° |
| 2026-05-05 00:52 | 32.07395 | -71.78764 | 35097 ft | 435 kts | 176° |
| 2026-05-05 00:52 | 32.01470 | -71.77203 | 35096 ft | 436 kts | 176° |
| 2026-05-05 00:53 | 31.95544 | -71.75647 | 35097 ft | 437 kts | 176° |
| 2026-05-05 00:53 | 31.89608 | -71.74088 | 35096 ft | 437 kts | 176° |
| 2026-05-05 00:54 | 31.83661 | -71.72529 | 35095 ft | 438 kts | 176° |
| 2026-05-05 00:54 | 31.77707 | -71.70968 | 35087 ft | 439 kts | 176° |
| 2026-05-05 00:55 | 31.71747 | -71.69409 | 35083 ft | 439 kts | 176° |
| 2026-05-05 00:55 | 31.65821 | -71.67861 | 35097 ft | 438 kts | 176° |
| 2026-05-05 00:56 | 31.59858 | -71.66306 | 35097 ft | 438 kts | 176° |
| 2026-05-05 00:56 | 31.54499 | -71.64907 | 35080 ft | 438 kts | 176° |
| 2026-05-05 00:57 | 31.48546 | -71.63356 | 35082 ft | 437 kts | 176° |
| 2026-05-05 00:57 | 31.42606 | -71.61812 | 35096 ft | 437 kts | 176° |
| 2026-05-05 00:58 | 31.36685 | -71.60274 | 35090 ft | 436 kts | 176° |
| 2026-05-05 00:58 | 31.30801 | -71.58749 | 35077 ft | 435 kts | 176° |
| 2026-05-05 00:59 | 31.24890 | -71.57219 | 35076 ft | 435 kts | 176° |
| 2026-05-05 00:59 | 31.18985 | -71.55692 | 35078 ft | 434 kts | 176° |
| 2026-05-05 01:00 | 31.13086 | -71.54168 | 35086 ft | 434 kts | 176° |
| 2026-05-05 01:00 | 31.07189 | -71.52648 | 35086 ft | 434 kts | 176° |
| 2026-05-05 01:01 | 31.01295 | -71.51129 | 35087 ft | 433 kts | 176° |
| 2026-05-05 01:01 | 30.95444 | -71.49623 | 35100 ft | 433 kts | 176° |
| 2026-05-05 01:02 | 30.89570 | -71.48114 | 35102 ft | 433 kts | 176° |
| 2026-05-05 01:02 | 30.83687 | -71.46605 | 35102 ft | 433 kts | 176° |
| 2026-05-05 01:03 | 30.77794 | -71.45094 | 35102 ft | 433 kts | 176° |
| 2026-05-05 01:03 | 30.71898 | -71.43585 | 35100 ft | 434 kts | 176° |
| 2026-05-05 01:04 | 30.66000 | -71.42076 | 35099 ft | 434 kts | 176° |
| 2026-05-05 01:04 | 30.57165 | -71.39821 | 35099 ft | 435 kts | 176° |
| 2026-05-05 01:05 | 30.51245 | -71.38313 | 35090 ft | 436 kts | 176° |
| 2026-05-05 01:05 | 30.45316 | -71.36804 | 35097 ft | 436 kts | 176° |
| 2026-05-05 01:06 | 30.39393 | -71.35298 | 35098 ft | 437 kts | 176° |
| 2026-05-05 01:06 | 30.33454 | -71.33789 | 35080 ft | 437 kts | 176° |
| 2026-05-05 01:07 | 30.27504 | -71.32280 | 35095 ft | 437 kts | 176° |
| 2026-05-05 01:07 | 30.21592 | -71.30782 | 35095 ft | 437 kts | 176° |
| 2026-05-05 01:08 | 30.15650 | -71.29279 | 35085 ft | 437 kts | 176° |
| 2026-05-05 01:08 | 30.09695 | -71.27773 | 35083 ft | 437 kts | 176° |
| 2026-05-05 01:09 | 30.03749 | -71.26271 | 35084 ft | 437 kts | 176° |
| 2026-05-05 01:09 | 29.97847 | -71.24783 | 35084 ft | 436 kts | 176° |
| 2026-05-05 01:10 | 29.91908 | -71.23288 | 35099 ft | 437 kts | 176° |
| 2026-05-05 01:10 | 29.85958 | -71.21793 | 35095 ft | 437 kts | 176° |
| 2026-05-05 01:11 | 29.80016 | -71.20302 | 35098 ft | 437 kts | 176° |
| 2026-05-05 01:11 | 29.74062 | -71.18808 | 35092 ft | 438 kts | 176° |
| 2026-05-05 01:12 | 29.68111 | -71.17316 | 35089 ft | 438 kts | 176° |
| 2026-05-05 01:12 | 29.62198 | -71.15836 | 35095 ft | 437 kts | 176° |
| 2026-05-05 01:13 | 29.56238 | -71.14347 | 35095 ft | 437 kts | 176° |
| 2026-05-05 01:13 | 29.50277 | -71.12859 | 35092 ft | 437 kts | 176° |
| 2026-05-05 01:14 | 29.44363 | -71.11384 | 35082 ft | 437 kts | 176° |
| 2026-05-05 01:14 | 29.38421 | -71.09903 | 35093 ft | 437 kts | 176° |
| 2026-05-05 01:15 | 29.32468 | -71.08424 | 35083 ft | 437 kts | 176° |
| 2026-05-05 01:15 | 29.26528 | -71.06947 | 35082 ft | 436 kts | 176° |
| 2026-05-05 01:16 | 29.20626 | -71.05481 | 35080 ft | 436 kts | 176° |
| 2026-05-05 01:16 | 29.14692 | -71.04011 | 35082 ft | 436 kts | 176° |
| 2026-05-05 01:17 | 29.08752 | -71.02541 | 35086 ft | 436 kts | 176° |
| 2026-05-05 01:17 | 29.02816 | -71.01073 | 35077 ft | 437 kts | 176° |
| 2026-05-05 01:18 | 28.96875 | -70.99605 | 35088 ft | 437 kts | 176° |
| 2026-05-05 01:18 | 28.90929 | -70.98137 | 35089 ft | 437 kts | 176° |
| 2026-05-05 01:19 | 28.85006 | -70.96679 | 35085 ft | 438 kts | 176° |
| 2026-05-05 01:19 | 28.79035 | -70.95210 | 35084 ft | 438 kts | 176° |
| 2026-05-05 01:20 | 28.73071 | -70.93745 | 35077 ft | 438 kts | 176° |
| 2026-05-05 01:20 | 28.67106 | -70.92280 | 35083 ft | 439 kts | 176° |
| 2026-05-05 01:21 | 28.61127 | -70.90814 | 35080 ft | 439 kts | 176° |
| 2026-05-05 01:21 | 28.55155 | -70.89353 | 35086 ft | 439 kts | 176° |
| 2026-05-05 01:22 | 28.49210 | -70.87899 | 35083 ft | 440 kts | 176° |
| 2026-05-05 01:22 | 28.43227 | -70.86435 | 35081 ft | 440 kts | 176° |
| 2026-05-05 01:23 | 28.37237 | -70.84972 | 35070 ft | 440 kts | 176° |
| 2026-05-05 01:23 | 28.31242 | -70.83511 | 35073 ft | 441 kts | 176° |
| 2026-05-05 01:24 | 28.25234 | -70.82049 | 35071 ft | 441 kts | 176° |
| 2026-05-05 01:24 | 28.19244 | -70.80592 | 35070 ft | 440 kts | 176° |
| 2026-05-05 01:25 | 28.13243 | -70.79133 | 35076 ft | 441 kts | 175° |
| 2026-05-05 01:25 | 28.07281 | -70.77686 | 35075 ft | 441 kts | 175° |
| 2026-05-05 01:26 | 28.01286 | -70.76233 | 35074 ft | 441 kts | 175° |
| 2026-05-05 01:26 | 27.95283 | -70.74779 | 35069 ft | 441 kts | 176° |
| 2026-05-05 01:27 | 27.89270 | -70.73326 | 35074 ft | 442 kts | 176° |
| 2026-05-05 01:27 | 27.83284 | -70.71882 | 35074 ft | 443 kts | 175° |
| 2026-05-05 01:28 | 27.77244 | -70.70424 | 35077 ft | 444 kts | 175° |
| 2026-05-05 01:28 | 27.71191 | -70.68964 | 35076 ft | 445 kts | 175° |
| 2026-05-05 01:29 | 27.65127 | -70.67503 | 35069 ft | 445 kts | 175° |
| 2026-05-05 01:29 | 27.59058 | -70.66042 | 35070 ft | 445 kts | 175° |
| 2026-05-05 01:30 | 27.52997 | -70.64586 | 35073 ft | 445 kts | 175° |
| 2026-05-05 01:30 | 27.46945 | -70.63134 | 35073 ft | 445 kts | 175° |
| 2026-05-05 01:31 | 27.40880 | -70.61680 | 35063 ft | 445 kts | 175° |
| 2026-05-05 01:31 | 27.34828 | -70.60231 | 35067 ft | 444 kts | 175° |
| 2026-05-05 01:32 | 27.28806 | -70.58791 | 35066 ft | 444 kts | 175° |
| 2026-05-05 01:32 | 27.22756 | -70.57344 | 35065 ft | 444 kts | 175° |
| 2026-05-05 01:33 | 27.16699 | -70.55899 | 35064 ft | 444 kts | 175° |
| 2026-05-05 01:33 | 27.10654 | -70.54460 | 35067 ft | 445 kts | 175° |
| 2026-05-05 01:34 | 27.04593 | -70.53016 | 35065 ft | 445 kts | 175° |
| 2026-05-05 01:34 | 26.98537 | -70.51577 | 35062 ft | 445 kts | 175° |
| 2026-05-05 01:35 | 26.92477 | -70.50139 | 35059 ft | 445 kts | 175° |
| 2026-05-05 01:35 | 26.86441 | -70.48707 | 35056 ft | 446 kts | 175° |
| 2026-05-05 01:36 | 26.80369 | -70.47267 | 35056 ft | 446 kts | 175° |
| 2026-05-05 01:36 | 26.74293 | -70.45828 | 35057 ft | 446 kts | 175° |
| 2026-05-05 01:37 | 26.68207 | -70.44388 | 35057 ft | 446 kts | 175° |
| 2026-05-05 01:37 | 26.62126 | -70.42950 | 35051 ft | 447 kts | 175° |
| 2026-05-05 01:38 | 26.56038 | -70.41513 | 35056 ft | 447 kts | 175° |
| 2026-05-05 01:38 | 26.50977 | -70.40321 | 35058 ft | 448 kts | 175° |
| 2026-05-05 01:39 | 26.44883 | -70.38885 | 35055 ft | 447 kts | 175° |
| 2026-05-05 01:39 | 26.37798 | -70.37218 | 35056 ft | 447 kts | 175° |
| 2026-05-05 01:40 | 26.32690 | -70.36018 | 35059 ft | 447 kts | 175° |
| 2026-05-05 01:40 | 26.26639 | -70.34597 | 35055 ft | 447 kts | 175° |
| 2026-05-05 01:41 | 26.20555 | -70.33171 | 35057 ft | 447 kts | 175° |
| 2026-05-05 01:41 | 26.14463 | -70.31743 | 35056 ft | 447 kts | 175° |
| 2026-05-05 01:42 | 26.08365 | -70.30316 | 35058 ft | 447 kts | 175° |
| 2026-05-05 01:42 | 26.02271 | -70.28891 | 35047 ft | 447 kts | 175° |
| 2026-05-05 01:43 | 25.96198 | -70.27472 | 35044 ft | 447 kts | 175° |
| 2026-05-05 01:43 | 25.90105 | -70.26050 | 35049 ft | 447 kts | 175° |
| 2026-05-05 01:44 | 25.84014 | -70.24631 | 35048 ft | 447 kts | 175° |
| 2026-05-05 01:44 | 25.77921 | -70.23213 | 35047 ft | 447 kts | 175° |
| 2026-05-05 01:45 | 25.71825 | -70.21795 | 35044 ft | 447 kts | 175° |
| 2026-05-05 01:45 | 25.65730 | -70.20380 | 35048 ft | 447 kts | 175° |
| 2026-05-05 01:46 | 25.59636 | -70.18964 | 35048 ft | 448 kts | 175° |
| 2026-05-05 01:46 | 25.53567 | -70.17558 | 35047 ft | 448 kts | 175° |
| 2026-05-05 01:47 | 25.47460 | -70.16144 | 35044 ft | 449 kts | 175° |
| 2026-05-05 01:47 | 25.41340 | -70.14729 | 35048 ft | 449 kts | 175° |
| 2026-05-05 01:48 | 25.35212 | -70.13313 | 35045 ft | 450 kts | 175° |
| 2026-05-05 01:48 | 25.29080 | -70.11896 | 35046 ft | 451 kts | 175° |
| 2026-05-05 01:49 | 25.22965 | -70.10485 | 35048 ft | 451 kts | 175° |
| 2026-05-05 01:49 | 25.16813 | -70.09068 | 35047 ft | 452 kts | 175° |
| 2026-05-05 01:50 | 25.10655 | -70.07649 | 35047 ft | 452 kts | 175° |
| 2026-05-05 01:50 | 25.04478 | -70.06229 | 35048 ft | 453 kts | 175° |
| 2026-05-05 01:51 | 24.98292 | -70.04995 | 35040 ft | 447 kts | 182° |
| 2026-05-05 01:51 | 24.92108 | -70.04716 | 35043 ft | 444 kts | 185° |
| 2026-05-05 01:52 | 24.85966 | -70.04513 | 35045 ft | 445 kts | 185° |
| 2026-05-05 01:52 | 24.79763 | -70.04264 | 35047 ft | 446 kts | 184° |
| 2026-05-05 01:53 | 24.73545 | -70.03982 | 35049 ft | 447 kts | 184° |
| 2026-05-05 01:53 | 24.67318 | -70.03689 | 35048 ft | 448 kts | 184° |
| 2026-05-05 01:54 | 24.61076 | -70.03397 | 35050 ft | 449 kts | 184° |
| 2026-05-05 01:54 | 24.54874 | -70.03110 | 35048 ft | 449 kts | 184° |
| 2026-05-05 01:55 | 24.48619 | -70.02822 | 35045 ft | 450 kts | 184° |
| 2026-05-05 01:55 | 24.42365 | -70.02534 | 35047 ft | 450 kts | 184° |
| 2026-05-05 01:56 | 24.36106 | -70.02246 | 35039 ft | 450 kts | 184° |
| 2026-05-05 01:56 | 24.29842 | -70.01958 | 35034 ft | 451 kts | 184° |
| 2026-05-05 01:57 | 24.23574 | -70.01670 | 35039 ft | 451 kts | 184° |
| 2026-05-05 01:57 | 24.17313 | -70.01527 | 35025 ft | 446 kts | 190° |
| 2026-05-05 01:58 | 24.11266 | -70.02674 | 35023 ft | 440 kts | 197° |
| 2026-05-05 01:58 | 24.05265 | -70.04012 | 35021 ft | 440 kts | 197° |
| 2026-05-05 01:59 | 23.99260 | -70.05324 | 35028 ft | 440 kts | 197° |
| 2026-05-05 01:59 | 23.93280 | -70.06606 | 35021 ft | 440 kts | 197° |
| 2026-05-05 02:00 | 23.87260 | -70.07887 | 35018 ft | 441 kts | 197° |
| 2026-05-05 02:00 | 23.81241 | -70.09166 | 35016 ft | 441 kts | 197° |
| 2026-05-05 02:01 | 23.75215 | -70.10444 | 35022 ft | 441 kts | 197° |
| 2026-05-05 02:01 | 23.69197 | -70.11720 | 35029 ft | 440 kts | 197° |
| 2026-05-05 02:02 | 23.63176 | -70.12995 | 35030 ft | 441 kts | 197° |
| 2026-05-05 02:02 | 23.57147 | -70.14273 | 35027 ft | 441 kts | 197° |
| 2026-05-05 02:03 | 23.51164 | -70.15538 | 35026 ft | 441 kts | 197° |
| 2026-05-05 02:03 | 23.45139 | -70.16813 | 35029 ft | 441 kts | 197° |
| 2026-05-05 02:04 | 23.39109 | -70.18085 | 35027 ft | 441 kts | 196° |
| 2026-05-05 02:04 | 23.33074 | -70.19357 | 35029 ft | 442 kts | 196° |
| 2026-05-05 02:05 | 23.27023 | -70.20631 | 35028 ft | 442 kts | 196° |
| 2026-05-05 02:05 | 23.20977 | -70.21902 | 35027 ft | 442 kts | 196° |
| 2026-05-05 02:06 | 23.14964 | -70.23169 | 35027 ft | 443 kts | 196° |
| 2026-05-05 02:06 | 23.08913 | -70.24443 | 35029 ft | 444 kts | 196° |
| 2026-05-05 02:07 | 23.02829 | -70.25720 | 35028 ft | 445 kts | 196° |
| 2026-05-05 02:07 | 22.96745 | -70.26996 | 35028 ft | 446 kts | 196° |
| 2026-05-05 02:08 | 22.90647 | -70.28274 | 35026 ft | 446 kts | 196° |
| 2026-05-05 02:08 | 22.84545 | -70.29551 | 35025 ft | 447 kts | 196° |
| 2026-05-05 02:09 | 22.78475 | -70.30820 | 35030 ft | 447 kts | 196° |
| 2026-05-05 02:09 | 22.72350 | -70.32101 | 35028 ft | 448 kts | 196° |
| 2026-05-05 02:10 | 22.66225 | -70.33380 | 35023 ft | 448 kts | 196° |
| 2026-05-05 02:10 | 22.60090 | -70.34659 | 35016 ft | 449 kts | 195° |
| 2026-05-05 02:11 | 22.53950 | -70.35943 | 35025 ft | 449 kts | 196° |
| 2026-05-05 02:11 | 22.47852 | -70.37212 | 35029 ft | 449 kts | 196° |
| 2026-05-05 02:12 | 22.38637 | -70.39127 | 35029 ft | 450 kts | 195° |
| 2026-05-05 02:13 | 22.32480 | -70.40406 | 35028 ft | 450 kts | 195° |
| 2026-05-05 02:13 | 22.26325 | -70.41683 | 35026 ft | 451 kts | 195° |
| 2026-05-05 02:14 | 22.20159 | -70.42962 | 35029 ft | 451 kts | 195° |
| 2026-05-05 02:14 | 22.13988 | -70.44241 | 35021 ft | 451 kts | 195° |
| 2026-05-05 02:15 | 22.07820 | -70.45518 | 35020 ft | 451 kts | 195° |
| 2026-05-05 02:15 | 22.01651 | -70.46794 | 35016 ft | 451 kts | 195° |
| 2026-05-05 02:16 | 21.95523 | -70.48061 | 35018 ft | 452 kts | 195° |
| 2026-05-05 02:16 | 21.89346 | -70.49336 | 35018 ft | 452 kts | 195° |
| 2026-05-05 02:17 | 21.83162 | -70.50611 | 35018 ft | 453 kts | 195° |
| 2026-05-05 02:17 | 21.76973 | -70.51886 | 35016 ft | 453 kts | 195° |
| 2026-05-05 02:18 | 21.70780 | -70.53162 | 35021 ft | 452 kts | 195° |
| 2026-05-05 02:18 | 21.64591 | -70.54436 | 35018 ft | 453 kts | 195° |
| 2026-05-05 02:18 | 21.61492 | -70.55074 | 34790 ft | 456 kts | 195° |
| 2026-05-05 02:19 | 21.58370 | -70.55717 | 34188 ft | 455 kts | 195° |
| 2026-05-05 02:19 | 21.55318 | -70.56343 | 33529 ft | 451 kts | 195° |
| 2026-05-05 02:19 | 21.52237 | -70.56974 | 32806 ft | 449 kts | 195° |
| 2026-05-05 02:19 | 21.49177 | -70.57601 | 32080 ft | 447 kts | 194° |
| 2026-05-05 02:20 | 21.46131 | -70.58225 | 31337 ft | 445 kts | 194° |
| 2026-05-05 02:20 | 21.43094 | -70.58848 | 30571 ft | 444 kts | 194° |
| 2026-05-05 02:20 | 21.40066 | -70.59469 | 29783 ft | 442 kts | 194° |
| 2026-05-05 02:20 | 21.37052 | -70.60087 | 28961 ft | 440 kts | 194° |
| 2026-05-05 02:21 | 21.34029 | -70.60707 | 28098 ft | 447 kts | 194° |
| 2026-05-05 02:21 | 21.30902 | -70.61352 | 27167 ft | 468 kts | 193° |
| 2026-05-05 02:21 | 21.27659 | -70.62020 | 26266 ft | 475 kts | 193° |
| 2026-05-05 02:21 | 21.24440 | -70.62677 | 25575 ft | 465 kts | 193° |
| 2026-05-05 02:22 | 21.21298 | -70.63315 | 24882 ft | 456 kts | 193° |
| 2026-05-05 02:22 | 21.18207 | -70.63943 | 24204 ft | 447 kts | 193° |
| 2026-05-05 02:22 | 21.15181 | -70.64560 | 23532 ft | 439 kts | 192° |
| 2026-05-05 02:22 | 21.12237 | -70.65160 | 22898 ft | 432 kts | 193° |
| 2026-05-05 02:23 | 21.09308 | -70.65758 | 22252 ft | 425 kts | 193° |
| 2026-05-05 02:23 | 21.06411 | -70.66349 | 21631 ft | 426 kts | 193° |
| 2026-05-05 02:23 | 21.03444 | -70.66957 | 20982 ft | 438 kts | 193° |
| 2026-05-05 02:23 | 21.00447 | -70.67570 | 20310 ft | 435 kts | 193° |
| 2026-05-05 02:24 | 20.97507 | -70.68169 | 19643 ft | 425 kts | 193° |
| 2026-05-05 02:24 | 20.94624 | -70.68755 | 19001 ft | 416 kts | 193° |
| 2026-05-05 02:24 | 20.91800 | -70.69329 | 18371 ft | 408 kts | 193° |
| 2026-05-05 02:24 | 20.89030 | -70.69891 | 17753 ft | 400 kts | 193° |
| 2026-05-05 02:25 | 20.86346 | -70.70436 | 17153 ft | 396 kts | 193° |
| 2026-05-05 02:25 | 20.83662 | -70.70982 | 16548 ft | 391 kts | 193° |
| 2026-05-05 02:25 | 20.80986 | -70.71527 | 15949 ft | 393 kts | 193° |
| 2026-05-05 02:25 | 20.78250 | -70.72087 | 15339 ft | 404 kts | 193° |
| 2026-05-05 02:26 | 20.75490 | -70.72650 | 14697 ft | 402 kts | 192° |
| 2026-05-05 02:26 | 20.72767 | -70.73203 | 14061 ft | 393 kts | 192° |
| 2026-05-05 02:26 | 20.70109 | -70.73741 | 13448 ft | 385 kts | 192° |
| 2026-05-05 02:26 | 20.67502 | -70.74269 | 12859 ft | 378 kts | 192° |
| 2026-05-05 02:27 | 20.64940 | -70.74789 | 12271 ft | 372 kts | 192° |
| 2026-05-05 02:27 | 20.62399 | -70.75305 | 11687 ft | 371 kts | 192° |
| 2026-05-05 02:27 | 20.59863 | -70.75820 | 11157 ft | 369 kts | 192° |
| 2026-05-05 02:27 | 20.57355 | -70.76328 | 11008 ft | 362 kts | 192° |
| 2026-05-05 02:28 | 20.54927 | -70.76819 | 10829 ft | 347 kts | 191° |
| 2026-05-05 02:28 | 20.52604 | -70.77290 | 10671 ft | 332 kts | 191° |
| 2026-05-05 02:28 | 20.50383 | -70.77740 | 10531 ft | 319 kts | 191° |
| 2026-05-05 02:28 | 20.48955 | -70.78029 | 10443 ft | 311 kts | 191° |
| 2026-05-05 02:29 | 20.46869 | -70.78452 | 10301 ft | 300 kts | 191° |
| 2026-05-05 02:29 | 20.44857 | -70.78860 | 10184 ft | 289 kts | 191° |
| 2026-05-05 02:29 | 20.42238 | -70.79390 | 10064 ft | 289 kts | 191° |
| 2026-05-05 02:29 | 20.40317 | -70.80017 | 10018 ft | 289 kts | 210° |
| 2026-05-05 02:30 | 20.39251 | -70.80875 | 10027 ft | 290 kts | 226° |
| 2026-05-05 02:30 | 20.38161 | -70.82671 | 10024 ft | 289 kts | 249° |
| 2026-05-05 02:30 | 20.37869 | -70.84751 | 10015 ft | 283 kts | 274° |
| 2026-05-05 02:30 | 20.38413 | -70.86763 | 10029 ft | 289 kts | 297° |
| 2026-05-05 02:31 | 20.39715 | -70.88421 | 10027 ft | 298 kts | 321° |
| 2026-05-05 02:31 | 20.41588 | -70.89357 | 10014 ft | 298 kts | 347° |
| 2026-05-05 02:31 | 20.43630 | -70.89401 | 10020 ft | 292 kts | 7° |
| 2026-05-05 02:31 | 20.45646 | -70.89022 | 10029 ft | 298 kts | 10° |
| 2026-05-05 02:32 | 20.47682 | -70.88609 | 10029 ft | 304 kts | 9° |
| 2026-05-05 02:32 | 20.49751 | -70.88199 | 10020 ft | 299 kts | 9° |
| 2026-05-05 02:32 | 20.51769 | -70.87777 | 9998 ft | 293 kts | 15° |
| 2026-05-05 02:32 | 20.53546 | -70.86723 | 10034 ft | 299 kts | 43° |
| 2026-05-05 02:33 | 20.54763 | -70.84904 | 10035 ft | 305 kts | 68° |
| 2026-05-05 02:33 | 20.55137 | -70.82714 | 10024 ft | 299 kts | 94° |
| 2026-05-05 02:33 | 20.54599 | -70.80638 | 10018 ft | 289 kts | 121° |
| 2026-05-05 02:33 | 20.53292 | -70.79019 | 10034 ft | 293 kts | 145° |
| 2026-05-05 02:34 | 20.51454 | -70.78089 | 10033 ft | 296 kts | 167° |
| 2026-05-05 02:34 | 20.49431 | -70.77995 | 10020 ft | 289 kts | 189° |
| 2026-05-05 02:34 | 20.47475 | -70.78359 | 10013 ft | 282 kts | 191° |
| 2026-05-05 02:34 | 20.45526 | -70.78749 | 10025 ft | 288 kts | 191° |
| 2026-05-05 02:35 | 20.43538 | -70.79140 | 10025 ft | 293 kts | 191° |
| 2026-05-05 02:35 | 20.41571 | -70.79523 | 10010 ft | 288 kts | 193° |
| 2026-05-05 02:35 | 20.39778 | -70.80363 | 10013 ft | 279 kts | 218° |
| 2026-05-05 02:35 | 20.38485 | -70.81918 | 10030 ft | 287 kts | 240° |
| 2026-05-05 02:36 | 20.37813 | -70.83928 | 10024 ft | 293 kts | 262° |
| 2026-05-05 02:36 | 20.37930 | -70.86073 | 10020 ft | 290 kts | 285° |
| 2026-05-05 02:36 | 20.38856 | -70.87943 | 10005 ft | 285 kts | 310° |
| 2026-05-05 02:36 | 20.40440 | -70.89247 | 10026 ft | 295 kts | 334° |
| 2026-05-05 02:37 | 20.42433 | -70.89822 | 10027 ft | 303 kts | 355° |
| 2026-05-05 02:37 | 20.44490 | -70.89481 | 10011 ft | 300 kts | 24° |
| 2026-05-05 02:37 | 20.46135 | -70.88192 | 10010 ft | 293 kts | 50° |
| 2026-05-05 02:37 | 20.47128 | -70.86284 | 10031 ft | 300 kts | 73° |
| 2026-05-05 02:38 | 20.47353 | -70.84071 | 10010 ft | 303 kts | 97° |
| 2026-05-05 02:38 | 20.46720 | -70.81975 | 9988 ft | 294 kts | 122° |
| 2026-05-05 02:38 | 20.45360 | -70.80421 | 9999 ft | 286 kts | 148° |
| 2026-05-05 02:38 | 20.43522 | -70.79578 | 10011 ft | 292 kts | 168° |
| 2026-05-05 02:39 | 20.41499 | -70.79484 | 10015 ft | 292 kts | 186° |
| 2026-05-05 02:39 | 20.39518 | -70.79627 | 9981 ft | 285 kts | 184° |
| 2026-05-05 02:39 | 20.37532 | -70.79729 | 9635 ft | 284 kts | 183° |
| 2026-05-05 02:39 | 20.35573 | -70.79823 | 9414 ft | 278 kts | 183° |
| 2026-05-05 02:40 | 20.33657 | -70.79914 | 9215 ft | 274 kts | 183° |
| 2026-05-05 02:40 | 20.31756 | -70.80006 | 9038 ft | 273 kts | 183° |
| 2026-05-05 02:40 | 20.29857 | -70.80100 | 8834 ft | 273 kts | 183° |
| 2026-05-05 02:40 | 20.27960 | -70.80193 | 8659 ft | 273 kts | 183° |
| 2026-05-05 02:41 | 20.26071 | -70.80287 | 8471 ft | 272 kts | 183° |
| 2026-05-05 02:41 | 20.24179 | -70.80381 | 8294 ft | 272 kts | 183° |
| 2026-05-05 02:41 | 20.22290 | -70.80476 | 8107 ft | 272 kts | 183° |
| 2026-05-05 02:41 | 20.20404 | -70.80571 | 7928 ft | 271 kts | 183° |
| 2026-05-05 02:42 | 20.18513 | -70.80666 | 7742 ft | 271 kts | 183° |
| 2026-05-05 02:42 | 20.16660 | -70.80758 | 7563 ft | 270 kts | 183° |
| 2026-05-05 02:42 | 20.14778 | -70.80853 | 7380 ft | 269 kts | 183° |
| 2026-05-05 02:42 | 20.12919 | -70.80947 | 7202 ft | 265 kts | 183° |
| 2026-05-05 02:43 | 20.11091 | -70.81038 | 7025 ft | 263 kts | 183° |
| 2026-05-05 02:43 | 20.09260 | -70.81130 | 6846 ft | 263 kts | 183° |
| 2026-05-05 02:43 | 20.07432 | -70.81221 | 6670 ft | 263 kts | 183° |
| 2026-05-05 02:43 | 20.05605 | -70.81311 | 6493 ft | 262 kts | 182° |
| 2026-05-05 02:44 | 20.03814 | -70.81015 | 6230 ft | 263 kts | 157° |
| 2026-05-05 02:44 | 20.02196 | -70.80134 | 6005 ft | 260 kts | 154° |
| 2026-05-05 02:44 | 20.00590 | -70.79260 | 5756 ft | 259 kts | 154° |
| 2026-05-05 02:44 | 19.98973 | -70.78413 | 5505 ft | 258 kts | 155° |
| 2026-05-05 02:45 | 19.97362 | -70.77588 | 5255 ft | 256 kts | 155° |
| 2026-05-05 02:45 | 19.95777 | -70.76789 | 5007 ft | 254 kts | 155° |
| 2026-05-05 02:45 | 19.94179 | -70.75988 | 4756 ft | 252 kts | 155° |
| 2026-05-05 02:45 | 19.92578 | -70.75235 | 4498 ft | 251 kts | 163° |
| 2026-05-05 02:46 | 19.90853 | -70.75189 | 4238 ft | 250 kts | 190° |
| 2026-05-05 02:46 | 19.89222 | -70.75783 | 4055 ft | 245 kts | 202° |
| 2026-05-05 02:46 | 19.87722 | -70.76540 | 3990 ft | 233 kts | 204° |
| 2026-05-05 02:46 | 19.86304 | -70.77280 | 3983 ft | 220 kts | 204° |
| 2026-05-05 02:47 | 19.84958 | -70.77969 | 3978 ft | 210 kts | 204° |
| 2026-05-05 02:47 | 19.83656 | -70.78638 | 3992 ft | 211 kts | 204° |
| 2026-05-05 02:47 | 19.82333 | -70.79309 | 4002 ft | 210 kts | 204° |
| 2026-05-05 02:47 | 19.81017 | -70.79973 | 3996 ft | 210 kts | 204° |
| 2026-05-05 02:48 | 19.79696 | -70.80633 | 4004 ft | 210 kts | 203° |
| 2026-05-05 02:48 | 19.78379 | -70.81291 | 3993 ft | 208 kts | 204° |
| 2026-05-05 02:48 | 19.77066 | -70.81944 | 4008 ft | 209 kts | 203° |
| 2026-05-05 02:48 | 19.75729 | -70.82576 | 3998 ft | 211 kts | 195° |
| 2026-05-05 02:49 | 19.74305 | -70.82532 | 3976 ft | 206 kts | 162° |
| 2026-05-05 02:49 | 19.72943 | -70.82066 | 3993 ft | 206 kts | 162° |
| 2026-05-05 02:49 | 19.71571 | -70.81618 | 4002 ft | 206 kts | 163° |
| 2026-05-05 02:49 | 19.70294 | -70.80940 | 3974 ft | 208 kts | 135° |
| 2026-05-05 02:50 | 19.69609 | -70.79612 | 3975 ft | 209 kts | 102° |
| 2026-05-05 02:50 | 19.69663 | -70.78066 | 3996 ft | 214 kts | 78° |
| 2026-05-05 02:50 | 19.70098 | -70.76567 | 4012 ft | 215 kts | 75° |
| 2026-05-05 02:50 | 19.70549 | -70.75045 | 4004 ft | 218 kts | 76° |
| 2026-05-05 02:51 | 19.71004 | -70.73510 | 3997 ft | 215 kts | 75° |
| 2026-05-05 02:51 | 19.71434 | -70.72054 | 4022 ft | 200 kts | 76° |
| 2026-05-05 02:51 | 19.71831 | -70.70690 | 4002 ft | 189 kts | 76° |
| 2026-05-05 02:51 | 19.72219 | -70.69356 | 3985 ft | 191 kts | 76° |
| 2026-05-05 02:52 | 19.72618 | -70.67978 | 3690 ft | 196 kts | 77° |
| 2026-05-05 02:52 | 19.73016 | -70.66601 | 3366 ft | 194 kts | 76° |
| 2026-05-05 02:52 | 19.73419 | -70.65215 | 2952 ft | 195 kts | 77° |
| 2026-05-05 02:52 | 19.73808 | -70.63874 | 2581 ft | 186 kts | 75° |
| 2026-05-05 02:53 | 19.74181 | -70.62589 | 2181 ft | 179 kts | 75° |
| 2026-05-05 02:53 | 19.74540 | -70.61341 | 1773 ft | 176 kts | 73° |
| 2026-05-05 02:53 | 19.74885 | -70.60103 | 1409 ft | 172 kts | 72° |
| 2026-05-05 02:53 | 19.75303 | -70.58971 | 1186 ft | 163 kts | 59° |
| 2026-05-05 02:54 | 19.76081 | -70.58156 | 1278 ft | 150 kts | 26° |
| 2026-05-05 02:54 | 19.77039 | -70.58036 | 1805 ft | 149 kts | 338° |
| 2026-05-05 02:54 | 19.77873 | -70.58578 | 2081 ft | 138 kts | 330° |
| 2026-05-05 02:54 | 19.78691 | -70.59229 | 2316 ft | 159 kts | 334° |
| 2026-05-05 02:55 | 19.79734 | -70.59749 | 2585 ft | 169 kts | 328° |
| 2026-05-05 02:55 | 19.80619 | -70.60566 | 3054 ft | 169 kts | 308° |
| 2026-05-05 02:55 | 19.81281 | -70.61590 | 3507 ft | 168 kts | 297° |
| 2026-05-05 02:55 | 19.81808 | -70.62696 | 3795 ft | 171 kts | 289° |
| 2026-05-05 02:56 | 19.82277 | -70.63945 | 3318 ft | 192 kts | 288° |
| 2026-05-05 02:56 | 19.82549 | -70.65243 | 3201 ft | 174 kts | 269° |
| 2026-05-05 02:56 | 19.82503 | -70.66458 | 3044 ft | 154 kts | 258° |
| 2026-05-05 02:56 | 19.82354 | -70.67616 | 2648 ft | 165 kts | 261° |
| 2026-05-05 02:57 | 19.82244 | -70.68871 | 2260 ft | 175 kts | 259° |
| 2026-05-05 02:57 | 19.81958 | -70.70132 | 1956 ft | 176 kts | 253° |
| 2026-05-05 02:57 | 19.81562 | -70.71358 | 1837 ft | 176 kts | 249° |
| 2026-05-05 02:57 | 19.81125 | -70.72495 | 2225 ft | 162 kts | 245° |
| 2026-05-05 02:58 | 19.80604 | -70.73602 | 2433 ft | 172 kts | 241° |
| 2026-05-05 02:58 | 19.80010 | -70.74700 | 2698 ft | 166 kts | 232° |
| 2026-05-05 02:58 | 19.79378 | -70.75605 | 3283 ft | 141 kts | 228° |
| 2026-05-05 02:58 | 19.78795 | -70.76405 | 3652 ft | 135 kts | 224° |
| 2026-05-05 02:59 | 19.78119 | -70.77390 | 3830 ft | 183 kts | 232° |
| 2026-05-05 02:59 | 19.77428 | -70.78524 | 3657 ft | 186 kts | 235° |
| 2026-05-05 02:59 | 19.76730 | -70.79612 | 3679 ft | 165 kts | 217° |
| 2026-05-05 02:59 | 19.75863 | -70.80372 | 3485 ft | 164 kts | 214° |
| 2026-05-05 03:00 | 19.74877 | -70.80890 | 3023 ft | 159 kts | 189° |
| 2026-05-05 03:00 | 19.73882 | -70.81272 | 2883 ft | 146 kts | 197° |
| 2026-05-05 03:00 | 19.72860 | -70.81480 | 2736 ft | 154 kts | 185° |
| 2026-05-05 03:00 | 19.71812 | -70.81614 | 2762 ft | 150 kts | 179° |
| 2026-05-05 03:01 | 19.70820 | -70.81512 | 2741 ft | 141 kts | 156° |
| 2026-05-05 03:01 | 19.69882 | -70.81372 | 2797 ft | 139 kts | 171° |
| 2026-05-05 03:01 | 19.68914 | -70.81340 | 3083 ft | 135 kts | 165° |
| 2026-05-05 03:01 | 19.67886 | -70.81181 | 3080 ft | 170 kts | 179° |
| 2026-05-05 03:02 | 19.66701 | -70.81326 | 3309 ft | 162 kts | 183° |
| 2026-05-05 03:02 | 19.65627 | -70.81217 | 3618 ft | 154 kts | 154° |
| 2026-05-05 03:02 | 19.64592 | -70.80708 | 4002 ft | 164 kts | 145° |
| 2026-05-05 03:02 | 19.64118 | -70.79711 | 4506 ft | 153 kts | 87° |
| 2026-05-05 03:03 | 19.64564 | -70.78713 | 4917 ft | 159 kts | 58° |
| 2026-05-05 03:03 | 19.65336 | -70.77793 | 5284 ft | 176 kts | 28° |
| 2026-05-05 03:03 | 19.66688 | -70.77504 | 5621 ft | 215 kts | 359° |
| 2026-05-05 03:03 | 19.68096 | -70.78286 | 5796 ft | 239 kts | 322° |
| 2026-05-05 03:04 | 19.69380 | -70.79074 | 7029 ft | 179 kts | 332° |
| 2026-05-05 03:04 | 19.70526 | -70.79339 | 7043 ft | 167 kts | 19° |
| 2026-05-05 03:04 | 19.71522 | -70.78700 | 6733 ft | 178 kts | 45° |
| 2026-05-05 03:04 | 19.72473 | -70.77786 | 6369 ft | 190 kts | 37° |
| 2026-05-05 03:05 | 19.73588 | -70.76868 | 5551 ft | 208 kts | 45° |
| 2026-05-05 03:05 | 19.74615 | -70.75860 | 5024 ft | 196 kts | 45° |
| 2026-05-05 03:05 | 19.75588 | -70.74859 | 4417 ft | 193 kts | 46° |
| 2026-05-05 03:05 | 19.76355 | -70.73737 | 3882 ft | 189 kts | 59° |
| 2026-05-05 03:06 | 19.76968 | -70.72520 | 3656 ft | 187 kts | 70° |
| 2026-05-05 03:06 | 19.77092 | -70.71206 | 3385 ft | 182 kts | 96° |
| 2026-05-05 03:06 | 19.76811 | -70.69923 | 3138 ft | 174 kts | 115° |
| 2026-05-05 03:06 | 19.76264 | -70.68866 | 3187 ft | 155 kts | 123° |
| 2026-05-05 03:07 | 19.75675 | -70.67897 | 2909 ft | 151 kts | 132° |
| 2026-05-05 03:07 | 19.75159 | -70.66984 | 2671 ft | 155 kts | 116° |
| 2026-05-05 03:07 | 19.74516 | -70.66012 | 2406 ft | 164 kts | 123° |
| 2026-05-05 03:07 | 19.74010 | -70.64962 | 2070 ft | 154 kts | 104° |
| 2026-05-05 03:08 | 19.73915 | -70.63830 | 1527 ft | 156 kts | 84° |
| 2026-05-05 03:08 | 19.74133 | -70.62710 | 1071 ft | 154 kts | 70° |
| 2026-05-05 03:08 | 19.74456 | -70.61624 | 668 ft | 159 kts | 72° |
| 2026-05-05 03:08 | 19.74847 | -70.60578 | 419 ft | 144 kts | 70° |
| 2026-05-05 03:09 | 19.75032 | -70.59580 | 323 ft | 145 kts | 79° |
| 2026-05-05 03:09 | 19.75336 | -70.58541 | 183 ft | 147 kts | 73° |
| 2026-05-05 03:09 | 19.75646 | -70.57523 | 67 ft | 136 kts | 72° |
| 2026-05-05 03:09 | 19.75886 | -70.56655 | 29 ft | 102 kts | 73° |
| 2026-05-05 03:10 | 19.76031 | -70.56152 | 28 ft | 36 kts | 73° |
| 2026-05-05 03:10 | 19.76041 | -70.56120 | 28 ft | 0 kts | 73° |
| 2026-05-05 03:10 | 19.76066 | -70.56033 | 25 ft | 17 kts | 73° |
| 2026-05-05 03:11 | 19.76075 | -70.55941 | 28 ft | 6 kts | 75° |
| 2026-05-05 03:11 | 19.76106 | -70.55933 | 29 ft | 5 kts | 324° |
| 2026-05-05 03:11 | 19.76101 | -70.55970 | 26 ft | 8 kts | 248° |
| 2026-05-05 03:11 | 19.76068 | -70.56054 | 26 ft | 14 kts | 249° |
| 2026-05-05 03:12 | 19.76032 | -70.56156 | 27 ft | 15 kts | 249° |
| 2026-05-05 03:12 | 19.75996 | -70.56263 | 27 ft | 15 kts | 252° |
| 2026-05-05 03:12 | 19.75960 | -70.56382 | 28 ft | 18 kts | 250° |
| 2026-05-05 03:12 | 19.75900 | -70.56438 | 28 ft | 7 kts | 172° |
| 2026-05-05 03:13 | 19.75847 | -70.56421 | 28 ft | 9 kts | 162° |
| 2026-05-05 03:13 | 19.75774 | -70.56396 | 29 ft | 12 kts | 162° |
| 2026-05-05 03:13 | 19.75692 | -70.56384 | 33 ft | 11 kts | 183° |
| 2026-05-05 03:13 | 19.75680 | -70.56388 | 34 ft | 7 kts | 203° |
| 2026-05-05 03:14 | 19.75638 | -70.56420 | 37 ft | 4 kts | 210° |
| 2026-05-05 03:14 | 19.75614 | -70.56435 | 39 ft | 0 kts | 210° |